Time;durP1;ratioP1;P1;durP2;ratioP2;P2;SDS_P1;SDS_P2;PMS_P1;PMS_P2;Temp;Humidity;BMP_temperature;BMP_pressure;BME280_temperature;BME280_humidity;BME280_pressure;Samples;Min_cycle;Max_cycle;Signal;HPM_P1;HPM_P2
2023/10/03 00:00:28;;;;;;;0.50;0.30;;;20.00;99.90;;;;;;5033445;28;20508;-81
2023/10/03 00:02:56;;;;;;;2.03;1.90;;;20.10;99.90;;;;;;5033653;28;20527;-80
2023/10/03 00:05:24;;;;;;;2.70;1.27;;;20.10;99.90;;;;;;5033493;28;20443;-81
2023/10/03 00:07:52;;;;;;;1.57;1.13;;;20.10;99.90;;;;;;5049648;28;20815;-80
2023/10/03 00:10:19;;;;;;;1.00;1.00;;;20.10;99.90;;;;;;5025242;28;20469;-81
2023/10/03 00:12:48;;;;;;;0.50;0.30;;;20.10;99.90;;;;;;5040512;28;20434;-81
2023/10/03 00:15:15;;;;;;;0.50;0.40;;;20.10;99.90;;;;;;5044656;28;20469;-81
2023/10/03 00:17:42;;;;;;;0.50;0.50;;;20.10;99.90;;;;;;5053089;28;20437;-80
2023/10/03 00:20:12;;;;;;;0.50;0.40;;;20.10;99.90;;;;;;5034316;28;20840;-81
2023/10/03 00:22:39;;;;;;;2.47;1.47;;;20.10;99.90;;;;;;5047572;28;20445;-81
2023/10/03 00:25:09;;;;;;;0.50;0.30;;;20.10;99.90;;;;;;5054010;28;20537;-82
2023/10/03 00:27:37;;;;;;;3.13;1.10;;;20.10;99.90;;;;;;5053201;28;20506;-81
2023/10/03 00:30:06;;;;;;;7.30;0.70;;;20.10;99.90;;;;;;5053512;28;20516;-81
2023/10/03 00:32:32;;;;;;;0.50;0.30;;;20.10;99.90;;;;;;5054858;28;20455;-80
2023/10/03 00:34:59;;;;;;;0.50;0.30;;;20.10;99.90;;;;;;5054031;28;20443;-77
2023/10/03 00:37:29;;;;;;;0.50;0.30;;;20.20;99.90;;;;;;5050356;28;20449;-81
2023/10/03 00:39:57;;;;;;;0.50;0.30;;;20.20;99.90;;;;;;5041765;28;20446;-81
2023/10/03 00:42:24;;;;;;;0.50;0.30;;;20.20;99.90;;;;;;5046494;28;20442;-81
2023/10/03 00:44:51;;;;;;;1.53;0.93;;;20.20;99.90;;;;;;5045802;28;20442;-80
2023/10/03 00:47:18;;;;;;;2.77;2.57;;;20.30;99.90;;;;;;5052757;28;20527;-79
2023/10/03 00:49:46;;;;;;;0.93;0.90;;;20.30;99.90;;;;;;5038696;28;20527;-80
2023/10/03 00:52:15;;;;;;;1.20;1.10;;;20.30;99.90;;;;;;5034139;28;20463;-80
2023/10/03 00:54:44;;;;;;;0.50;0.50;;;20.40;99.90;;;;;;5039609;28;20438;-81
2023/10/03 00:57:10;;;;;;;0.50;0.30;;;20.40;99.90;;;;;;5036949;28;20904;-80
2023/10/03 00:59:38;;;;;;;0.60;0.50;;;20.50;99.90;;;;;;5053432;28;20524;-82
2023/10/03 01:02:07;;;;;;;1.37;1.27;;;20.50;99.90;;;;;;5053654;28;20463;-82
2023/10/03 01:04:35;;;;;;;0.50;0.43;;;20.60;99.90;;;;;;5047998;28;20444;-81
2023/10/03 01:07:02;;;;;;;0.50;0.37;;;20.60;99.90;;;;;;5050419;28;20449;-80
2023/10/03 01:09:31;;;;;;;0.90;0.90;;;20.60;99.90;;;;;;5038293;28;20532;-81
2023/10/03 01:11:59;;;;;;;2.40;2.00;;;20.70;99.90;;;;;;5036198;28;20549;-81
2023/10/03 01:14:27;;;;;;;0.50;0.30;;;20.70;99.90;;;;;;5037320;28;20448;-81
2023/10/03 01:16:55;;;;;;;0.50;0.30;;;20.70;99.90;;;;;;5036973;28;20474;-80
2023/10/03 01:19:25;;;;;;;0.50;0.30;;;20.70;99.90;;;;;;5035870;28;21000;-81
2023/10/03 01:21:52;;;;;;;0.87;0.80;;;20.70;99.90;;;;;;5045421;28;20458;-81
2023/10/03 01:24:24;;;;;;;0.50;0.30;;;20.70;99.90;;;;;;5033074;28;20806;-81
2023/10/03 01:26:53;;;;;;;0.50;0.30;;;20.70;99.90;;;;;;5039954;28;20433;-81
2023/10/03 01:29:20;;;;;;;0.53;0.47;;;20.70;99.90;;;;;;5041683;28;20476;-81
2023/10/03 01:31:49;;;;;;;0.50;0.30;;;20.60;99.90;;;;;;5034133;28;20535;-80
2023/10/03 01:34:16;;;;;;;0.50;0.30;;;20.60;99.90;;;;;;5033741;28;20434;-81
2023/10/03 01:36:47;;;;;;;0.50;0.30;;;20.60;99.90;;;;;;5033937;28;20845;-81
2023/10/03 01:39:14;;;;;;;0.50;0.30;;;20.60;99.90;;;;;;5051732;28;20447;-81
2023/10/03 01:41:43;;;;;;;0.50;0.30;;;20.60;99.90;;;;;;5046506;28;20481;-81
2023/10/03 01:44:10;;;;;;;0.50;0.40;;;20.50;99.90;;;;;;5040587;28;20967;-81
2023/10/03 01:46:38;;;;;;;0.50;0.30;;;20.50;99.90;;;;;;5037238;28;20430;-80
2023/10/03 01:49:06;;;;;;;0.50;0.30;;;20.50;99.90;;;;;;5034214;28;20445;-81
2023/10/03 01:51:32;;;;;;;0.60;0.40;;;20.50;99.90;;;;;;5031808;28;20461;-81
2023/10/03 01:53:59;;;;;;;0.50;0.30;;;20.40;99.90;;;;;;5051962;28;20461;-81
2023/10/03 01:56:26;;;;;;;2.87;2.77;;;20.50;99.90;;;;;;5055280;28;20473;-81
2023/10/03 01:58:55;;;;;;;2.37;2.20;;;20.50;99.90;;;;;;5058109;28;20444;-81
2023/10/03 02:01:23;;;;;;;0.50;0.40;;;20.50;99.90;;;;;;5037251;28;20457;-82
2023/10/03 02:03:50;;;;;;;0.50;0.30;;;20.50;99.90;;;;;;5051412;28;20933;-81
2023/10/03 02:06:19;;;;;;;0.50;0.30;;;20.60;99.90;;;;;;5037847;28;20441;-81
2023/10/03 02:08:47;;;;;;;0.50;0.40;;;20.50;99.90;;;;;;5036667;28;20449;-81
2023/10/03 02:11:14;;;;;;;0.50;0.40;;;20.50;99.90;;;;;;5037810;28;20996;-81
2023/10/03 02:13:41;;;;;;;0.50;0.30;;;20.50;99.90;;;;;;5055682;28;20441;-81
2023/10/03 02:16:10;;;;;;;0.50;0.30;;;20.50;99.90;;;;;;5055476;28;20851;-81
2023/10/03 02:18:37;;;;;;;1.63;1.50;;;20.50;99.90;;;;;;5056162;28;20444;-79
2023/10/03 02:21:05;;;;;;;0.50;0.30;;;20.50;99.90;;;;;;5048154;28;20518;-81
2023/10/03 02:23:32;;;;;;;0.50;0.40;;;20.60;99.90;;;;;;5028072;28;20453;-81
2023/10/03 02:26:07;;;;;;;1.40;1.27;;;20.60;99.90;;;;;;5036432;28;20443;-81
2023/10/03 02:28:34;;;;;;;0.50;0.30;;;20.50;99.90;;;;;;5036138;28;20442;-81
2023/10/03 02:31:02;;;;;;;0.50;0.30;;;20.50;99.90;;;;;;5035958;28;21044;-81
2023/10/03 02:33:31;;;;;;;0.50;0.30;;;20.50;99.90;;;;;;5043805;28;20447;-81
2023/10/03 02:35:57;;;;;;;0.50;0.40;;;20.50;99.90;;;;;;5035665;28;20483;-81
2023/10/03 02:38:30;;;;;;;1.90;1.80;;;20.50;99.90;;;;;;5045777;28;20662;-81
2023/10/03 02:40:57;;;;;;;0.60;0.60;;;20.50;99.90;;;;;;5056041;28;20464;-81
2023/10/03 02:43:24;;;;;;;1.97;1.87;;;20.50;99.90;;;;;;5044640;28;20435;-80
2023/10/03 02:45:51;;;;;;;0.50;0.30;;;20.50;99.90;;;;;;5035381;28;20478;-81
2023/10/03 02:48:20;;;;;;;0.90;0.90;;;20.50;99.90;;;;;;5036003;28;20805;-81
2023/10/03 02:50:50;;;;;;;0.70;0.60;;;20.60;99.90;;;;;;5054377;28;20465;-79
2023/10/03 02:53:19;;;;;;;0.50;0.30;;;20.60;99.90;;;;;;5036767;28;20829;-80
2023/10/03 02:55:47;;;;;;;0.50;0.30;;;20.60;99.90;;;;;;5035062;28;20921;-81
2023/10/03 02:58:16;;;;;;;0.50;0.30;;;20.70;99.90;;;;;;5052793;28;20527;-81
2023/10/03 03:00:46;;;;;;;0.50;0.30;;;20.70;99.90;;;;;;5054944;28;20871;-81
2023/10/03 03:03:14;;;;;;;7.40;6.87;;;20.80;99.90;;;;;;5046093;28;20870;-80
2023/10/03 03:05:43;;;;;;;0.50;0.40;;;20.80;99.90;;;;;;5050229;28;20794;-81
2023/10/03 03:08:22;;;;;;;0.50;0.30;;;20.90;99.90;;;;;;5042852;28;20500;-80
2023/10/03 03:10:51;;;;;;;0.50;0.30;;;21.00;99.90;;;;;;5047896;28;20465;-80
2023/10/03 03:13:19;;;;;;;0.50;0.30;;;21.00;99.90;;;;;;5045470;28;20438;-81
2023/10/03 03:15:51;;;;;;;8.30;1.27;;;21.00;99.90;;;;;;5053494;28;20541;-81
2023/10/03 03:18:20;;;;;;;0.50;0.30;;;21.00;99.90;;;;;;5052602;28;20481;-81
2023/10/03 03:20:53;;;;;;;0.50;0.50;;;21.10;99.90;;;;;;5040578;28;20455;-78
2023/10/03 03:23:22;;;;;;;0.50;0.30;;;21.10;99.90;;;;;;5033976;28;20445;-80
2023/10/03 03:25:57;;;;;;;0.50;0.40;;;21.10;99.90;;;;;;5034589;28;20435;-82
2023/10/03 03:28:24;;;;;;;3.13;1.43;;;21.00;99.90;;;;;;5043651;28;20487;-80
2023/10/03 03:30:56;;;;;;;0.50;0.30;;;21.00;99.90;;;;;;5048225;28;20468;-81
2023/10/03 03:33:27;;;;;;;0.50;0.30;;;21.00;99.90;;;;;;5033849;28;20801;-81
2023/10/03 03:35:54;;;;;;;0.50;0.30;;;21.00;99.90;;;;;;5033905;28;20431;-80
2023/10/03 03:38:23;;;;;;;0.83;0.83;;;20.90;99.90;;;;;;5041746;28;20438;-80
2023/10/03 03:40:56;;;;;;;0.50;0.40;;;21.00;99.90;;;;;;5033735;28;20536;-81
2023/10/03 03:43:25;;;;;;;5.00;1.37;;;21.00;99.90;;;;;;5033552;28;20518;-81
2023/10/03 03:45:52;;;;;;;0.83;0.83;;;20.90;99.90;;;;;;5039829;28;20444;-80
2023/10/03 03:48:21;;;;;;;0.50;0.40;;;21.00;99.90;;;;;;5053361;28;20516;-80
2023/10/03 03:50:50;;;;;;;0.50;0.40;;;21.00;99.90;;;;;;5053714;28;20484;-79
2023/10/03 03:53:18;;;;;;;2.97;1.37;;;21.10;99.90;;;;;;5036391;28;20437;-81
2023/10/03 03:55:49;;;;;;;1.20;1.10;;;21.10;99.90;;;;;;5033455;28;20930;-81
2023/10/03 03:58:18;;;;;;;0.80;0.60;;;21.10;99.90;;;;;;5033444;28;20487;-81
2023/10/03 04:00:47;;;;;;;0.50;0.30;;;21.10;99.90;;;;;;5033539;28;20465;-81
2023/10/03 04:03:14;;;;;;;1.57;1.03;;;21.10;99.90;;;;;;5041908;28;20947;-80
2023/10/03 04:05:42;;;;;;;1.90;1.80;;;21.10;99.90;;;;;;5052980;28;20954;-81
2023/10/03 04:08:09;;;;;;;1.43;1.33;;;21.10;99.90;;;;;;5053309;28;20438;-80
2023/10/03 04:10:37;;;;;;;0.50;0.40;;;21.00;99.90;;;;;;5050345;28;20809;-81
2023/10/03 04:13:09;;;;;;;0.97;0.97;;;21.00;99.90;;;;;;5034071;28;20921;-81
2023/10/03 04:15:37;;;;;;;0.50;0.40;;;21.00;99.90;;;;;;5041280;28;20441;-81
2023/10/03 04:18:05;;;;;;;2.73;2.53;;;21.00;99.90;;;;;;5033389;28;20482;-81
2023/10/03 04:20:32;;;;;;;0.50;0.40;;;21.00;99.90;;;;;;5034053;28;20520;-80
2023/10/03 04:22:59;;;;;;;0.60;0.60;;;21.10;99.90;;;;;;5035178;28;20438;-80
2023/10/03 04:25:27;;;;;;;4.03;2.13;;;21.10;99.90;;;;;;5052324;28;20519;-81
2023/10/03 04:27:56;;;;;;;6.33;1.13;;;21.10;99.90;;;;;;5040437;28;20437;-81
2023/10/03 04:30:26;;;;;;;0.50;0.30;;;21.10;99.90;;;;;;5035157;28;20524;-81
2023/10/03 04:32:54;;;;;;;0.70;0.70;;;21.10;99.90;;;;;;5035192;28;20452;-81
2023/10/03 04:35:22;;;;;;;7.80;4.60;;;21.10;99.90;;;;;;5034096;28;20434;-81
2023/10/03 04:37:51;;;;;;;3.07;2.83;;;21.10;99.90;;;;;;5052983;28;20465;-81
2023/10/03 04:40:22;;;;;;;17.93;1.13;;;21.00;99.90;;;;;;5044494;28;20470;-82
2023/10/03 04:42:49;;;;;;;0.50;0.40;;;21.00;99.90;;;;;;5033327;28;20435;-81
2023/10/03 04:45:19;;;;;;;0.50;0.30;;;20.90;99.90;;;;;;5033183;28;20447;-81
2023/10/03 04:47:48;;;;;;;16.53;0.80;;;20.90;99.90;;;;;;5029071;28;20440;-81
2023/10/03 04:50:18;;;;;;;2.33;0.63;;;20.90;99.90;;;;;;5053120;28;20964;-81
2023/10/03 04:52:48;;;;;;;1.13;1.03;;;20.90;99.90;;;;;;5042066;28;20526;-82
2023/10/03 04:55:14;;;;;;;0.97;0.87;;;20.90;99.90;;;;;;5033351;28;20442;-81
2023/10/03 04:57:43;;;;;;;0.50;0.40;;;20.80;99.90;;;;;;5035386;28;20482;-81
2023/10/03 05:00:11;;;;;;;1.10;0.80;;;20.80;99.90;;;;;;5045883;28;20459;-81
2023/10/03 05:02:39;;;;;;;0.87;0.67;;;20.70;99.90;;;;;;5043278;28;20433;-81
2023/10/03 05:05:10;;;;;;;0.50;0.40;;;20.60;99.90;;;;;;5052185;28;20787;-82
2023/10/03 05:07:36;;;;;;;0.50;0.50;;;20.60;99.90;;;;;;5049559;28;20445;-81
2023/10/03 05:10:04;;;;;;;0.60;0.60;;;20.60;99.90;;;;;;5033078;28;20445;-81
2023/10/03 05:12:31;;;;;;;0.50;0.40;;;20.50;99.90;;;;;;5032566;28;20427;-82
2023/10/03 05:14:58;;;;;;;1.70;1.60;;;20.50;99.90;;;;;;5032226;28;20439;-81
2023/10/03 05:17:26;;;;;;;3.17;2.27;;;20.40;99.90;;;;;;5049603;28;20472;-82
2023/10/03 05:19:53;;;;;;;11.70;3.67;;;20.50;99.90;;;;;;5039949;28;20480;-81
2023/10/03 05:22:23;;;;;;;0.50;0.30;;;20.40;99.90;;;;;;5033039;28;20452;-80
2023/10/03 05:24:50;;;;;;;0.50;0.40;;;20.40;99.90;;;;;;5024822;28;20550;-82
2023/10/03 05:27:17;;;;;;;0.60;0.50;;;20.30;99.90;;;;;;5034860;28;20858;-81
2023/10/03 05:29:44;;;;;;;0.50;0.30;;;20.30;99.90;;;;;;5046922;28;20429;-80
2023/10/03 05:32:12;;;;;;;1.23;0.87;;;20.20;99.90;;;;;;5056770;28;20972;-81
2023/10/03 05:34:39;;;;;;;0.87;0.73;;;20.20;99.90;;;;;;5056386;28;20441;-80
2023/10/03 05:37:06;;;;;;;0.97;0.87;;;20.20;99.90;;;;;;5050432;28;20544;-79
2023/10/03 05:39:34;;;;;;;0.50;0.50;;;20.20;99.90;;;;;;5046567;28;20447;-81
2023/10/03 05:42:00;;;;;;;1.70;1.23;;;20.20;99.90;;;;;;5056775;28;20467;-82
2023/10/03 05:44:27;;;;;;;0.93;0.70;;;20.20;99.90;;;;;;5060771;28;20879;-82
2023/10/03 05:46:55;;;;;;;1.10;1.00;;;20.10;99.90;;;;;;5057950;28;20434;-81
2023/10/03 05:49:24;;;;;;;1.77;1.10;;;20.10;99.90;;;;;;5049117;28;20932;-81
2023/10/03 05:51:55;;;;;;;0.50;0.30;;;20.10;99.90;;;;;;5029037;28;20454;-79
2023/10/03 05:54:23;;;;;;;0.50;0.30;;;20.10;99.90;;;;;;5053327;28;20534;-81
2023/10/03 05:56:51;;;;;;;0.50;0.40;;;20.10;99.90;;;;;;5029015;28;20529;-81
2023/10/03 05:59:18;;;;;;;0.50;0.43;;;20.10;99.90;;;;;;5044937;28;20443;-81
2023/10/03 06:01:45;;;;;;;2.67;2.47;;;20.20;99.90;;;;;;5054166;28;20456;-81
2023/10/03 06:04:12;;;;;;;1.40;1.30;;;20.10;99.90;;;;;;5036497;28;20816;-81
2023/10/03 06:06:39;;;;;;;4.83;1.63;;;20.10;99.90;;;;;;5048165;28;20429;-81
2023/10/03 06:09:05;;;;;;;1.73;1.63;;;20.10;99.90;;;;;;5056699;28;20447;-80
2023/10/03 06:11:34;;;;;;;0.50;0.40;;;20.10;99.90;;;;;;5056070;28;20453;-82
2023/10/03 06:14:03;;;;;;;0.53;0.50;;;20.10;99.90;;;;;;5042867;28;20434;-81
2023/10/03 06:16:30;;;;;;;1.90;1.80;;;20.20;99.90;;;;;;5042916;28;20506;-79
2023/10/03 06:18:57;;;;;;;0.90;0.40;;;20.20;99.90;;;;;;5035072;28;20475;-81
2023/10/03 06:21:24;;;;;;;0.53;0.50;;;20.20;99.90;;;;;;5051370;28;20461;-81
2023/10/03 06:23:52;;;;;;;0.80;0.80;;;20.20;99.90;;;;;;5052348;28;20433;-80
2023/10/03 06:26:20;;;;;;;0.80;0.40;;;20.30;99.90;;;;;;5035107;28;20447;-81
2023/10/03 06:28:48;;;;;;;4.90;2.10;;;20.20;99.90;;;;;;5045541;28;20437;-81
2023/10/03 06:31:17;;;;;;;0.97;0.50;;;20.20;99.90;;;;;;5055275;28;20493;-81
2023/10/03 06:33:44;;;;;;;1.77;1.63;;;20.20;99.90;;;;;;5037246;28;20442;-81
2023/10/03 06:36:12;;;;;;;14.03;1.93;;;20.20;99.90;;;;;;5034830;28;20438;-80
2023/10/03 06:38:41;;;;;;;0.50;0.40;;;20.20;99.90;;;;;;5034022;28;20484;-81
2023/10/03 06:41:09;;;;;;;3.87;1.80;;;20.10;99.90;;;;;;5043543;28;20469;-81
2023/10/03 06:43:36;;;;;;;0.50;0.30;;;20.10;99.90;;;;;;5036275;28;20446;-80
2023/10/03 06:46:05;;;;;;;2.63;2.43;;;20.20;99.90;;;;;;5046702;28;20434;-82
2023/10/03 06:48:34;;;;;;;0.93;0.70;;;20.20;99.90;;;;;;5045544;28;20438;-81
2023/10/03 06:51:05;;;;;;;2.40;2.30;;;20.20;99.90;;;;;;5039303;28;20461;-81
2023/10/03 06:53:32;;;;;;;0.50;0.50;;;20.20;99.90;;;;;;5053930;28;20933;-80
2023/10/03 06:56:00;;;;;;;0.70;0.70;;;20.20;99.90;;;;;;5034253;28;20832;-80
2023/10/03 06:58:27;;;;;;;2.27;2.10;;;20.20;99.90;;;;;;5034714;28;20509;-81
2023/10/03 07:00:55;;;;;;;0.90;0.90;;;20.20;99.90;;;;;;5051358;28;20822;-80
2023/10/03 07:03:22;;;;;;;2.30;2.10;;;20.20;99.90;;;;;;5041586;28;20440;-80
2023/10/03 07:05:50;;;;;;;2.00;0.90;;;20.10;99.90;;;;;;5052546;28;20467;-80
2023/10/03 07:08:17;;;;;;;0.60;0.60;;;20.00;99.90;;;;;;5049177;28;20817;-80
2023/10/03 07:10:44;;;;;;;3.70;1.27;;;20.00;99.90;;;;;;5035593;28;20496;-81
2023/10/03 07:13:12;;;;;;;0.50;0.30;;;20.00;99.90;;;;;;5035119;28;20504;-81
2023/10/03 07:15:39;;;;;;;2.50;0.63;;;20.00;99.90;;;;;;5051974;28;20441;-81
2023/10/03 07:18:06;;;;;;;1.67;1.57;;;20.00;99.90;;;;;;5054544;28;20480;-79
2023/10/03 07:20:34;;;;;;;2.00;0.87;;;19.90;99.90;;;;;;5053929;28;20461;-80
2023/10/03 07:23:03;;;;;;;0.50;0.40;;;19.90;99.90;;;;;;5042781;28;20447;-80
2023/10/03 07:25:32;;;;;;;0.50;0.37;;;19.80;99.90;;;;;;5034303;28;20434;-81
2023/10/03 07:27:59;;;;;;;0.50;0.40;;;19.80;99.90;;;;;;5033748;28;20534;-80
2023/10/03 07:30:25;;;;;;;0.50;0.40;;;19.80;99.90;;;;;;5050203;28;21058;-81
2023/10/03 07:32:52;;;;;;;0.50;0.30;;;19.90;99.90;;;;;;5035284;28;20445;-78
2023/10/03 07:35:21;;;;;;;0.80;0.70;;;19.90;99.90;;;;;;5040451;28;20443;-81
2023/10/03 07:37:49;;;;;;;0.60;0.50;;;19.90;99.90;;;;;;5052353;28;20490;-81
2023/10/03 07:40:18;;;;;;;0.90;0.80;;;19.90;99.90;;;;;;5047399;28;20952;-80
2023/10/03 07:42:45;;;;;;;31.40;9.53;;;19.90;99.90;;;;;;5043546;28;20433;-81
2023/10/03 07:45:12;;;;;;;0.50;0.30;;;19.90;99.90;;;;;;5039303;28;20436;-81
2023/10/03 07:47:41;;;;;;;0.60;0.60;;;20.00;99.90;;;;;;5045774;28;20432;-81
2023/10/03 07:50:11;;;;;;;2.50;2.20;;;19.90;99.90;;;;;;5040274;28;20451;-80
2023/10/03 07:52:38;;;;;;;0.50;0.33;;;19.90;99.90;;;;;;5033866;28;20443;-79
2023/10/03 07:55:05;;;;;;;0.50;0.30;;;20.00;99.90;;;;;;5033830;28;20445;-81
2023/10/03 07:57:34;;;;;;;0.50;0.50;;;19.90;99.90;;;;;;5050504;28;20923;-80
2023/10/03 08:00:03;;;;;;;0.50;0.33;;;19.90;99.90;;;;;;5037883;28;20467;-80
2023/10/03 08:02:32;;;;;;;1.87;1.17;;;19.90;99.90;;;;;;5046675;28;20450;-78
2023/10/03 08:05:00;;;;;;;0.50;0.30;;;19.80;99.90;;;;;;5033707;28;20442;-81
2023/10/03 08:07:27;;;;;;;0.50;0.30;;;19.80;99.90;;;;;;5048707;28;20991;-81
2023/10/03 08:09:55;;;;;;;1.40;0.70;;;19.80;99.90;;;;;;5034003;28;20469;-80
2023/10/03 08:12:24;;;;;;;0.50;0.30;;;19.80;99.90;;;;;;5043014;28;20446;-82
2023/10/03 08:14:54;;;;;;;0.73;0.73;;;19.80;99.90;;;;;;5032668;28;20457;-80
2023/10/03 08:17:26;;;;;;;0.50;0.40;;;19.80;99.90;;;;;;5038422;28;20476;-80
2023/10/03 08:19:53;;;;;;;1.73;1.47;;;19.80;99.90;;;;;;5034061;28;20521;-80
2023/10/03 08:22:20;;;;;;;5.80;0.70;;;19.70;99.90;;;;;;5043477;28;20445;-80
2023/10/03 08:24:47;;;;;;;1.23;0.63;;;19.70;99.90;;;;;;5033920;28;20937;-81
2023/10/03 08:27:19;;;;;;;0.50;0.40;;;19.70;99.90;;;;;;5034010;28;20441;-80
2023/10/03 08:29:50;;;;;;;0.50;0.50;;;19.60;99.90;;;;;;5034215;28;20425;-80
2023/10/03 08:32:19;;;;;;;0.50;0.30;;;19.60;99.90;;;;;;5033999;28;20938;-81
2023/10/03 08:34:46;;;;;;;2.10;0.97;;;19.60;99.90;;;;;;5034055;28;20454;-82
2023/10/03 08:37:21;;;;;;;0.50;0.37;;;19.60;99.90;;;;;;5046508;28;20874;-81
2023/10/03 08:39:49;;;;;;;0.50;0.30;;;19.60;99.90;;;;;;5053824;28;20473;-81
2023/10/03 08:42:18;;;;;;;0.97;0.97;;;19.50;99.90;;;;;;5055427;28;20923;-81
2023/10/03 08:44:51;;;;;;;0.50;0.30;;;19.40;99.90;;;;;;5045359;28;20453;-81
2023/10/03 08:47:28;;;;;;;0.50;0.30;;;19.30;99.90;;;;;;5034394;28;20445;-80
2023/10/03 08:50:10;;;;;;;0.50;0.30;;;19.20;99.90;;;;;;5033976;28;20925;-81
2023/10/03 08:52:44;;;;;;;0.83;0.63;;;19.10;99.90;;;;;;5041815;28;20600;-80
2023/10/03 08:55:14;;;;;;;1.67;1.57;;;19.10;99.90;;;;;;5049898;28;20797;-81
2023/10/03 08:57:41;;;;;;;0.90;0.80;;;19.00;99.90;;;;;;5042408;28;20441;-81
2023/10/03 09:00:09;;;;;;;0.50;0.40;;;18.90;99.90;;;;;;5034160;28;20445;-80
2023/10/03 09:02:45;;;;;;;101.70;10.50;;;18.80;99.90;;;;;;5034141;28;20471;-81
2023/10/03 09:05:19;;;;;;;1.07;0.80;;;18.70;99.90;;;;;;5046026;28;20432;-81
2023/10/03 09:07:46;;;;;;;1.33;1.23;;;18.60;99.90;;;;;;5044636;28;20440;-81
2023/10/03 09:10:22;;;;;;;0.50;0.50;;;18.60;99.90;;;;;;5042416;28;20471;-81
2023/10/03 09:12:50;;;;;;;0.50;0.40;;;18.60;99.90;;;;;;5051462;28;20472;-81
2023/10/03 09:15:18;;;;;;;0.90;0.80;;;18.60;99.90;;;;;;5040461;28;20863;-80
2023/10/03 09:17:49;;;;;;;0.90;0.90;;;18.70;99.90;;;;;;5043346;28;20497;-80
2023/10/03 09:20:20;;;;;;;1.83;0.83;;;18.70;99.90;;;;;;5041566;28;20491;-80
2023/10/03 09:22:47;;;;;;;0.50;0.30;;;18.70;99.90;;;;;;5043738;28;20439;-80
2023/10/03 09:25:15;;;;;;;0.50;0.40;;;18.70;99.90;;;;;;5049656;28;20441;-80
2023/10/03 09:27:42;;;;;;;0.70;0.70;;;18.70;99.90;;;;;;5033386;28;20469;-80
2023/10/03 09:30:22;;;;;;;0.50;0.30;;;18.80;99.90;;;;;;5044576;28;20463;-80
2023/10/03 09:32:50;;;;;;;0.80;0.70;;;18.90;99.90;;;;;;5051533;28;20440;-79
2023/10/03 09:35:18;;;;;;;4.00;1.67;;;18.90;99.90;;;;;;5036958;28;20435;-80
2023/10/03 09:37:48;;;;;;;0.50;0.30;;;19.00;99.90;;;;;;5043539;28;20954;-80
2023/10/03 09:40:18;;;;;;;0.50;0.40;;;19.00;99.90;;;;;;5045288;28;20460;-80
2023/10/03 09:42:48;;;;;;;2.50;0.60;;;19.10;99.90;;;;;;5043178;28;20527;-79
2023/10/03 09:45:18;;;;;;;1.00;0.90;;;19.10;99.90;;;;;;5052576;28;20428;-80
2023/10/03 09:47:46;;;;;;;3.77;1.70;;;19.10;99.90;;;;;;5035004;28;20858;-80
2023/10/03 09:50:15;;;;;;;0.50;0.30;;;19.00;99.90;;;;;;5039700;28;20787;-82
2023/10/03 09:52:46;;;;;;;2.63;2.40;;;18.80;99.90;;;;;;5031843;28;20442;-81
2023/10/03 09:55:26;;;;;;;0.50;0.33;;;18.40;99.90;;;;;;5024317;28;20438;-81
2023/10/03 09:57:54;;;;;;;2.10;1.40;;;18.20;99.90;;;;;;5031502;28;20444;-80
2023/10/03 10:00:38;;;;;;;0.50;0.40;;;18.00;99.90;;;;;;5031725;28;20551;-81
2023/10/03 10:03:07;;;;;;;1.00;0.70;;;17.90;99.90;;;;;;5042003;28;20539;-81
2023/10/03 10:05:39;;;;;;;0.57;0.50;;;17.80;99.90;;;;;;5051783;28;20437;-82
2023/10/03 10:08:13;;;;;;;0.50;0.40;;;17.70;99.90;;;;;;5050907;28;20465;-81
2023/10/03 10:10:41;;;;;;;0.50;0.37;;;17.60;99.90;;;;;;5051331;28;20562;-82
2023/10/03 10:13:13;;;;;;;0.73;0.60;;;17.40;99.90;;;;;;5041690;28;20452;-82
2023/10/03 10:16:07;;;;;;;0.50;0.40;;;17.30;99.90;;;;;;5035598;28;20448;-81
2023/10/03 10:19:00;;;;;;;0.57;0.47;;;17.20;99.90;;;;;;5036322;28;20564;-81
2023/10/03 10:21:31;;;;;;;0.80;0.73;;;17.20;99.90;;;;;;5034883;28;20499;-81
2023/10/03 10:24:40;;;;;;;0.50;0.30;;;17.10;99.90;;;;;;5034529;28;20807;-79
2023/10/03 10:27:21;;;;;;;0.93;0.90;;;17.10;99.90;;;;;;5035963;28;20449;-79
2023/10/03 10:29:58;;;;;;;0.50;0.40;;;17.10;99.90;;;;;;5035728;28;20540;-81
2023/10/03 10:32:28;;;;;;;0.50;0.40;;;17.10;99.90;;;;;;5035552;28;20782;-82
2023/10/03 10:35:01;;;;;;;0.50;0.30;;;17.10;99.90;;;;;;5035380;28;20471;-82
2023/10/03 10:37:52;;;;;;;0.50;0.40;;;17.20;99.90;;;;;;5034823;28;20448;-81
2023/10/03 10:40:21;;;;;;;0.50;0.40;;;17.20;99.90;;;;;;5034463;28;20477;-81
2023/10/03 10:43:08;;;;;;;0.90;0.73;;;17.20;99.90;;;;;;5034519;28;20448;-80
2023/10/03 10:45:42;;;;;;;0.67;0.60;;;17.30;99.90;;;;;;5029099;28;20449;-81
2023/10/03 10:48:11;;;;;;;1.40;1.07;;;17.30;99.90;;;;;;5045184;28;20436;-80
2023/10/03 10:51:09;;;;;;;0.50;0.40;;;17.30;99.90;;;;;;5039729;28;20548;-81
2023/10/03 10:53:43;;;;;;;0.73;0.50;;;17.40;99.90;;;;;;4994128;28;20440;-80
2023/10/03 10:56:11;;;;;;;0.50;0.40;;;17.50;99.90;;;;;;5037560;28;20450;-81
2023/10/03 10:58:53;;;;;;;0.67;0.67;;;17.40;99.90;;;;;;5054353;28;20842;-81
2023/10/03 11:01:20;;;;;;;1.13;1.10;;;17.30;99.90;;;;;;5026832;28;20461;-81
2023/10/03 11:03:48;;;;;;;0.50;0.40;;;17.40;99.90;;;;;;5042385;28;20460;-81
2023/10/03 11:06:16;;;;;;;1.53;1.10;;;17.30;99.90;;;;;;5045952;28;20432;-82
2023/10/03 11:08:51;;;;;;;0.50;0.40;;;17.30;99.90;;;;;;5046915;28;20464;-82
2023/10/03 11:11:20;;;;;;;0.50;0.37;;;17.20;99.90;;;;;;5042848;28;20554;-81
2023/10/03 11:13:48;;;;;;;1.10;0.70;;;17.10;99.90;;;;;;5042001;28;21215;-82
2023/10/03 11:16:23;;;;;;;0.50;0.40;;;17.20;99.90;;;;;;5043511;28;20439;-82
2023/10/03 11:18:51;;;;;;;0.50;0.40;;;17.30;99.90;;;;;;5042553;28;20479;-81
2023/10/03 11:21:19;;;;;;;0.50;0.40;;;17.30;99.90;;;;;;5053950;28;20451;-82
2023/10/03 11:24:13;;;;;;;0.50;0.40;;;17.40;99.90;;;;;;5053613;28;20440;-81
2023/10/03 11:26:48;;;;;;;8.37;1.23;;;17.50;99.90;;;;;;5041386;23;20487;-81
2023/10/03 11:29:17;;;;;;;0.50;0.30;;;17.50;99.90;;;;;;4999509;28;20481;-80
2023/10/03 11:31:45;;;;;;;0.50;0.40;;;17.60;99.90;;;;;;5001028;28;20850;-80
2023/10/03 11:34:13;;;;;;;0.50;0.30;;;17.70;99.90;;;;;;4997814;28;20477;-80
2023/10/03 11:36:44;;;;;;;0.50;0.40;;;17.80;99.90;;;;;;5008324;28;20470;-81
2023/10/03 11:39:23;;;;;;;0.50;0.30;;;17.90;99.90;;;;;;5014632;28;20552;-81
2023/10/03 11:41:50;;;;;;;0.50;0.30;;;18.00;99.90;;;;;;5015516;28;20442;-81
2023/10/03 11:44:20;;;;;;;0.50;0.33;;;18.00;99.90;;;;;;5015575;28;20453;-80
2023/10/03 11:46:47;;;;;;;0.50;0.40;;;17.90;99.90;;;;;;5015297;28;20467;-81
2023/10/03 11:49:15;;;;;;;0.50;0.40;;;17.80;99.90;;;;;;5015206;28;20442;-80
2023/10/03 11:51:43;;;;;;;0.50;0.40;;;17.70;99.90;;;;;;5015534;28;20533;-80
2023/10/03 11:54:11;;;;;;;0.50;0.30;;;17.70;99.90;;;;;;5014916;28;20869;-79
2023/10/03 11:56:46;;;;;;;0.50;0.30;;;17.60;99.90;;;;;;5015245;28;20466;-80
2023/10/03 11:59:14;;;;;;;0.50;0.40;;;17.70;99.90;;;;;;5014027;28;21011;-81
2023/10/03 12:01:43;;;;;;;0.50;0.40;;;17.70;99.90;;;;;;5014837;28;21020;-81
2023/10/03 12:04:11;;;;;;;0.50;0.40;;;17.70;99.90;;;;;;5014227;28;20809;-80
2023/10/03 12:06:38;;;;;;;0.50;0.30;;;17.70;99.90;;;;;;5014920;28;20963;-81
2023/10/03 12:09:08;;;;;;;0.50;0.30;;;17.60;99.90;;;;;;5014280;28;20443;-80
2023/10/03 12:11:36;;;;;;;0.50;0.30;;;17.50;99.90;;;;;;5015284;28;20509;-79
2023/10/03 12:14:04;;;;;;;0.50;0.40;;;17.30;99.90;;;;;;5014751;28;20446;-80
2023/10/03 12:16:31;;;;;;;5.80;1.83;;;17.20;99.90;;;;;;5014535;28;20458;-80
2023/10/03 12:18:58;;;;;;;0.50;0.40;;;17.20;99.90;;;;;;5014915;28;20488;-81
2023/10/03 12:21:26;;;;;;;0.50;0.40;;;17.10;99.90;;;;;;5006742;28;20439;-80
2023/10/03 12:23:52;;;;;;;0.50;0.30;;;17.10;99.90;;;;;;5015656;28;20437;-80
2023/10/03 12:26:19;;;;;;;0.50;0.30;;;17.20;99.90;;;;;;5014367;28;20475;-81
2023/10/03 12:28:46;;;;;;;0.50;0.30;;;17.20;99.90;;;;;;5017223;28;20945;-78
2023/10/03 12:31:14;;;;;;;0.63;0.63;;;17.20;99.90;;;;;;5017937;28;20442;-79
2023/10/03 12:33:41;;;;;;;0.50;0.30;;;17.20;99.90;;;;;;5014789;28;20933;-80
2023/10/03 12:36:11;;;;;;;0.50;0.30;;;17.20;99.90;;;;;;5013099;28;21005;-80
2023/10/03 12:38:38;;;;;;;0.70;0.60;;;17.20;99.90;;;;;;5014499;28;20933;-80
2023/10/03 12:41:06;;;;;;;0.50;0.30;;;17.20;99.90;;;;;;5014527;28;20503;-80
2023/10/03 12:43:33;;;;;;;0.50;0.30;;;17.20;99.90;;;;;;5014612;28;20534;-79
2023/10/03 12:46:00;;;;;;;0.50;0.40;;;17.30;99.90;;;;;;5014322;28;20480;-79
2023/10/03 12:48:29;;;;;;;0.50;0.37;;;17.40;99.90;;;;;;5006955;28;20446;-81
2023/10/03 12:50:56;;;;;;;0.50;0.30;;;17.40;99.90;;;;;;5015821;28;20438;-83
2023/10/03 12:53:22;;;;;;;0.50;0.50;;;17.50;99.90;;;;;;5015380;28;20453;-81
2023/10/03 12:55:49;;;;;;;0.50;0.40;;;17.30;99.90;;;;;;5014901;28;20484;-81